sensor_id;sensor_type;location;lat;lon;timestamp;P1;durP1;ratioP1;P2;durP2;ratioP2
49223;SDS011;35050;51.316;5.994;2023-02-22T00:00:27;47.78;;;27.08;;
49223;SDS011;35050;51.316;5.994;2023-02-22T00:05:50;40.58;;;24.20;;
49223;SDS011;35050;51.316;5.994;2023-02-22T00:08:23;37.10;;;22.92;;
49223;SDS011;35050;51.316;5.994;2023-02-22T00:10:56;48.47;;;23.88;;
49223;SDS011;35050;51.316;5.994;2023-02-22T00:13:23;35.97;;;21.55;;
49223;SDS011;35050;51.316;5.994;2023-02-22T00:15:49;36.60;;;19.88;;
49223;SDS011;35050;51.316;5.994;2023-02-22T00:18:16;32.78;;;19.73;;
49223;SDS011;35050;51.316;5.994;2023-02-22T00:20:42;35.17;;;20.33;;
49223;SDS011;35050;51.316;5.994;2023-02-22T00:23:18;36.38;;;20.90;;
49223;SDS011;35050;51.316;5.994;2023-02-22T00:25:46;35.78;;;21.13;;
49223;SDS011;35050;51.316;5.994;2023-02-22T00:28:14;37.30;;;21.45;;
49223;SDS011;35050;51.316;5.994;2023-02-22T00:30:41;39.45;;;20.38;;
49223;SDS011;35050;51.316;5.994;2023-02-22T00:33:07;36.53;;;20.50;;
49223;SDS011;35050;51.316;5.994;2023-02-22T00:35:34;34.90;;;18.58;;
49223;SDS011;35050;51.316;5.994;2023-02-22T00:38:00;34.20;;;18.77;;
49223;SDS011;35050;51.316;5.994;2023-02-22T00:40:28;34.20;;;18.77;;
49223;SDS011;35050;51.316;5.994;2023-02-22T00:42:55;32.50;;;17.38;;
49223;SDS011;35050;51.316;5.994;2023-02-22T00:45:23;27.85;;;16.67;;
49223;SDS011;35050;51.316;5.994;2023-02-22T00:47:50;30.30;;;16.40;;
49223;SDS011;35050;51.316;5.994;2023-02-22T00:50:16;30.27;;;15.27;;
49223;SDS011;35050;51.316;5.994;2023-02-22T00:52:43;26.20;;;14.98;;
49223;SDS011;35050;51.316;5.994;2023-02-22T00:55:13;28.52;;;15.82;;
49223;SDS011;35050;51.316;5.994;2023-02-22T00:57:47;34.42;;;18.70;;
49223;SDS011;35050;51.316;5.994;2023-02-22T01:00:18;38.75;;;20.73;;
49223;SDS011;35050;51.316;5.994;2023-02-22T01:02:46;41.10;;;22.55;;
49223;SDS011;35050;51.316;5.994;2023-02-22T01:05:16;39.13;;;21.02;;
49223;SDS011;35050;51.316;5.994;2023-02-22T01:07:43;41.20;;;21.48;;
49223;SDS011;35050;51.316;5.994;2023-02-22T01:10:10;36.67;;;19.77;;
49223;SDS011;35050;51.316;5.994;2023-02-22T01:12:37;34.53;;;18.95;;
49223;SDS011;35050;51.316;5.994;2023-02-22T01:15:03;33.30;;;18.00;;
49223;SDS011;35050;51.316;5.994;2023-02-22T01:17:30;35.13;;;18.55;;
49223;SDS011;35050;51.316;5.994;2023-02-22T01:19:56;39.42;;;20.35;;
49223;SDS011;35050;51.316;5.994;2023-02-22T01:22:22;32.40;;;16.80;;
49223;SDS011;35050;51.316;5.994;2023-02-22T01:24:48;28.65;;;16.13;;
49223;SDS011;35050;51.316;5.994;2023-02-22T01:27:14;31.10;;;16.45;;
49223;SDS011;35050;51.316;5.994;2023-02-22T01:29:41;31.90;;;16.45;;
49223;SDS011;35050;51.316;5.994;2023-02-22T01:32:07;33.58;;;17.05;;
49223;SDS011;35050;51.316;5.994;2023-02-22T01:34:33;30.50;;;15.32;;
49223;SDS011;35050;51.316;5.994;2023-02-22T01:36:59;32.80;;;16.95;;
49223;SDS011;35050;51.316;5.994;2023-02-22T01:39:28;30.23;;;17.40;;
49223;SDS011;35050;51.316;5.994;2023-02-22T01:41:54;35.42;;;18.73;;
49223;SDS011;35050;51.316;5.994;2023-02-22T01:44:33;39.17;;;20.27;;
49223;SDS011;35050;51.316;5.994;2023-02-22T01:47:01;38.58;;;21.10;;
49223;SDS011;35050;51.316;5.994;2023-02-22T01:49:30;35.35;;;19.75;;
49223;SDS011;35050;51.316;5.994;2023-02-22T01:52:05;38.13;;;19.05;;
49223;SDS011;35050;51.316;5.994;2023-02-22T01:54:35;40.08;;;20.38;;
49223;SDS011;35050;51.316;5.994;2023-02-22T01:57:13;37.92;;;20.17;;
49223;SDS011;35050;51.316;5.994;2023-02-22T01:59:52;36.92;;;20.25;;
49223;SDS011;35050;51.316;5.994;2023-02-22T02:02:22;36.13;;;18.13;;
49223;SDS011;35050;51.316;5.994;2023-02-22T02:04:49;34.65;;;18.13;;
49223;SDS011;35050;51.316;5.994;2023-02-22T02:07:17;32.60;;;18.40;;
49223;SDS011;35050;51.316;5.994;2023-02-22T02:10:02;33.90;;;18.30;;
49223;SDS011;35050;51.316;5.994;2023-02-22T02:12:31;38.72;;;19.52;;
49223;SDS011;35050;51.316;5.994;2023-02-22T02:17:56;36.92;;;18.85;;
49223;SDS011;35050;51.316;5.994;2023-02-22T02:34:33;40.92;;;21.88;;
49223;SDS011;35050;51.316;5.994;2023-02-22T02:42:23;42.55;;;23.48;;
49223;SDS011;35050;51.316;5.994;2023-02-22T02:45:02;41.55;;;22.13;;
49223;SDS011;35050;51.316;5.994;2023-02-22T02:47:36;41.35;;;22.13;;
49223;SDS011;35050;51.316;5.994;2023-02-22T02:50:10;40.88;;;20.67;;
49223;SDS011;35050;51.316;5.994;2023-02-22T02:52:47;44.28;;;19.70;;
49223;SDS011;35050;51.316;5.994;2023-02-22T02:55:14;33.28;;;17.48;;
49223;SDS011;35050;51.316;5.994;2023-02-22T02:57:41;31.63;;;16.83;;
49223;SDS011;35050;51.316;5.994;2023-02-22T03:00:07;33.70;;;17.92;;
49223;SDS011;35050;51.316;5.994;2023-02-22T03:05:47;39.83;;;21.40;;
49223;SDS011;35050;51.316;5.994;2023-02-22T03:16:20;34.10;;;19.15;;
49223;SDS011;35050;51.316;5.994;2023-02-22T03:19:11;41.00;;;22.13;;
49223;SDS011;35050;51.316;5.994;2023-02-22T03:29:49;40.03;;;23.35;;
49223;SDS011;35050;51.316;5.994;2023-02-22T03:32:21;39.35;;;21.65;;
49223;SDS011;35050;51.316;5.994;2023-02-22T03:34:53;35.25;;;19.75;;
49223;SDS011;35050;51.316;5.994;2023-02-22T03:37:25;37.78;;;21.42;;
49223;SDS011;35050;51.316;5.994;2023-02-22T03:39:58;38.55;;;21.05;;
49223;SDS011;35050;51.316;5.994;2023-02-22T03:42:30;32.83;;;18.38;;
49223;SDS011;35050;51.316;5.994;2023-02-22T03:45:00;40.30;;;20.65;;
49223;SDS011;35050;51.316;5.994;2023-02-22T03:47:30;39.17;;;20.80;;
49223;SDS011;35050;51.316;5.994;2023-02-22T03:50:06;32.58;;;19.08;;
49223;SDS011;35050;51.316;5.994;2023-02-22T03:52:39;28.48;;;16.30;;
49223;SDS011;35050;51.316;5.994;2023-02-22T03:55:07;32.53;;;18.30;;
49223;SDS011;35050;51.316;5.994;2023-02-22T03:57:35;30.52;;;18.23;;
49223;SDS011;35050;51.316;5.994;2023-02-22T04:00:05;29.23;;;17.20;;
49223;SDS011;35050;51.316;5.994;2023-02-22T04:02:32;26.00;;;14.93;;
49223;SDS011;35050;51.316;5.994;2023-02-22T04:04:58;26.50;;;15.77;;
49223;SDS011;35050;51.316;5.994;2023-02-22T04:07:24;26.70;;;16.38;;
49223;SDS011;35050;51.316;5.994;2023-02-22T04:09:50;35.72;;;19.67;;
49223;SDS011;35050;51.316;5.994;2023-02-22T04:12:15;34.55;;;18.42;;
49223;SDS011;35050;51.316;5.994;2023-02-22T04:14:41;29.17;;;16.88;;
49223;SDS011;35050;51.316;5.994;2023-02-22T04:17:07;26.40;;;15.43;;
49223;SDS011;35050;51.316;5.994;2023-02-22T04:19:32;22.10;;;14.30;;
49223;SDS011;35050;51.316;5.994;2023-02-22T04:21:59;28.23;;;16.70;;
49223;SDS011;35050;51.316;5.994;2023-02-22T04:24:24;27.92;;;16.05;;
49223;SDS011;35050;51.316;5.994;2023-02-22T04:26:50;29.98;;;17.08;;
49223;SDS011;35050;51.316;5.994;2023-02-22T04:29:16;27.60;;;16.50;;
49223;SDS011;35050;51.316;5.994;2023-02-22T04:31:41;26.00;;;15.75;;
49223;SDS011;35050;51.316;5.994;2023-02-22T04:34:07;39.33;;;20.95;;
49223;SDS011;35050;51.316;5.994;2023-02-22T04:36:32;36.65;;;20.85;;
49223;SDS011;35050;51.316;5.994;2023-02-22T04:38:59;38.30;;;20.92;;
49223;SDS011;35050;51.316;5.994;2023-02-22T04:41:25;41.22;;;21.90;;
49223;SDS011;35050;51.316;5.994;2023-02-22T04:43:51;39.08;;;21.73;;
49223;SDS011;35050;51.316;5.994;2023-02-22T04:46:17;39.78;;;21.17;;
49223;SDS011;35050;51.316;5.994;2023-02-22T04:48:43;35.38;;;19.73;;
49223;SDS011;35050;51.316;5.994;2023-02-22T04:51:09;38.72;;;21.40;;
49223;SDS011;35050;51.316;5.994;2023-02-22T04:53:35;34.65;;;19.15;;
49223;SDS011;35050;51.316;5.994;2023-02-22T04:56:01;40.20;;;23.15;;
49223;SDS011;35050;51.316;5.994;2023-02-22T04:58:27;55.75;;;31.52;;
49223;SDS011;35050;51.316;5.994;2023-02-22T05:00:52;57.00;;;32.00;;
49223;SDS011;35050;51.316;5.994;2023-02-22T05:03:18;51.13;;;29.83;;
49223;SDS011;35050;51.316;5.994;2023-02-22T05:05:44;56.58;;;29.65;;
49223;SDS011;35050;51.316;5.994;2023-02-22T05:08:09;51.50;;;27.48;;
49223;SDS011;35050;51.316;5.994;2023-02-22T05:10:35;43.30;;;23.60;;
49223;SDS011;35050;51.316;5.994;2023-02-22T05:13:01;57.47;;;29.20;;
49223;SDS011;35050;51.316;5.994;2023-02-22T05:15:26;44.70;;;24.95;;
49223;SDS011;35050;51.316;5.994;2023-02-22T05:17:52;49.33;;;24.85;;
49223;SDS011;35050;51.316;5.994;2023-02-22T05:22:54;47.42;;;24.40;;
49223;SDS011;35050;51.316;5.994;2023-02-22T05:25:21;41.28;;;22.98;;
49223;SDS011;35050;51.316;5.994;2023-02-22T05:27:53;50.72;;;26.55;;
49223;SDS011;35050;51.316;5.994;2023-02-22T05:30:22;46.17;;;24.40;;
49223;SDS011;35050;51.316;5.994;2023-02-22T05:32:50;47.13;;;24.35;;
49223;SDS011;35050;51.316;5.994;2023-02-22T05:35:17;40.30;;;22.25;;
49223;SDS011;35050;51.316;5.994;2023-02-22T05:37:43;33.80;;;19.33;;
49223;SDS011;35050;51.316;5.994;2023-02-22T05:40:10;31.65;;;17.83;;
49223;SDS011;35050;51.316;5.994;2023-02-22T05:42:36;31.98;;;18.77;;
49223;SDS011;35050;51.316;5.994;2023-02-22T05:45:02;24.40;;;15.40;;
49223;SDS011;35050;51.316;5.994;2023-02-22T05:47:28;26.63;;;16.58;;
49223;SDS011;35050;51.316;5.994;2023-02-22T05:49:54;24.80;;;15.82;;
49223;SDS011;35050;51.316;5.994;2023-02-22T05:52:20;25.23;;;15.65;;
49223;SDS011;35050;51.316;5.994;2023-02-22T05:54:45;24.40;;;14.80;;
49223;SDS011;35050;51.316;5.994;2023-02-22T05:57:11;23.52;;;14.30;;
49223;SDS011;35050;51.316;5.994;2023-02-22T05:59:36;22.00;;;13.68;;
49223;SDS011;35050;51.316;5.994;2023-02-22T06:02:02;19.70;;;13.55;;
49223;SDS011;35050;51.316;5.994;2023-02-22T06:04:28;23.70;;;13.88;;
49223;SDS011;35050;51.316;5.994;2023-02-22T06:06:54;17.88;;;11.50;;
49223;SDS011;35050;51.316;5.994;2023-02-22T06:09:20;27.05;;;15.68;;
49223;SDS011;35050;51.316;5.994;2023-02-22T06:11:46;23.60;;;15.43;;
49223;SDS011;35050;51.316;5.994;2023-02-22T06:14:11;25.80;;;16.23;;
49223;SDS011;35050;51.316;5.994;2023-02-22T06:16:37;21.77;;;14.45;;
49223;SDS011;35050;51.316;5.994;2023-02-22T06:19:03;20.77;;;12.68;;
49223;SDS011;35050;51.316;5.994;2023-02-22T06:21:28;19.58;;;12.93;;
49223;SDS011;35050;51.316;5.994;2023-02-22T06:23:54;17.25;;;11.70;;
49223;SDS011;35050;51.316;5.994;2023-02-22T06:26:19;16.20;;;10.68;;
49223;SDS011;35050;51.316;5.994;2023-02-22T06:28:47;16.17;;;10.75;;
49223;SDS011;35050;51.316;5.994;2023-02-22T06:31:13;18.10;;;11.77;;
49223;SDS011;35050;51.316;5.994;2023-02-22T06:33:39;16.73;;;11.45;;
49223;SDS011;35050;51.316;5.994;2023-02-22T06:36:05;17.50;;;11.82;;
49223;SDS011;35050;51.316;5.994;2023-02-22T06:38:31;22.17;;;13.60;;
49223;SDS011;35050;51.316;5.994;2023-02-22T06:40:57;19.17;;;13.30;;
49223;SDS011;35050;51.316;5.994;2023-02-22T06:43:23;24.88;;;15.40;;
49223;SDS011;35050;51.316;5.994;2023-02-22T06:45:50;19.38;;;12.80;;
49223;SDS011;35050;51.316;5.994;2023-02-22T06:48:16;26.85;;;16.42;;
49223;SDS011;35050;51.316;5.994;2023-02-22T06:50:42;21.80;;;14.63;;
49223;SDS011;35050;51.316;5.994;2023-02-22T06:53:07;22.98;;;14.65;;
49223;SDS011;35050;51.316;5.994;2023-02-22T06:55:33;19.80;;;13.77;;
49223;SDS011;35050;51.316;5.994;2023-02-22T06:58:00;20.05;;;12.85;;
49223;SDS011;35050;51.316;5.994;2023-02-22T07:00:27;19.05;;;12.95;;
49223;SDS011;35050;51.316;5.994;2023-02-22T07:02:54;21.98;;;15.00;;
49223;SDS011;35050;51.316;5.994;2023-02-22T07:05:21;22.05;;;15.18;;
49223;SDS011;35050;51.316;5.994;2023-02-22T07:07:49;20.63;;;14.75;;
49223;SDS011;35050;51.316;5.994;2023-02-22T07:10:27;20.80;;;14.35;;
49223;SDS011;35050;51.316;5.994;2023-02-22T07:12:53;20.33;;;14.82;;
49223;SDS011;35050;51.316;5.994;2023-02-22T07:15:20;20.65;;;15.00;;
49223;SDS011;35050;51.316;5.994;2023-02-22T07:17:47;16.90;;;12.80;;
49223;SDS011;35050;51.316;5.994;2023-02-22T07:20:14;19.73;;;13.93;;
49223;SDS011;35050;51.316;5.994;2023-02-22T07:22:40;19.25;;;13.98;;
49223;SDS011;35050;51.316;5.994;2023-02-22T07:25:07;15.85;;;11.70;;
49223;SDS011;35050;51.316;5.994;2023-02-22T07:27:35;16.17;;;12.05;;
49223;SDS011;35050;51.316;5.994;2023-02-22T07:30:02;15.77;;;12.02;;
49223;SDS011;35050;51.316;5.994;2023-02-22T07:32:29;16.45;;;11.52;;
49223;SDS011;35050;51.316;5.994;2023-02-22T07:34:55;18.08;;;13.25;;
49223;SDS011;35050;51.316;5.994;2023-02-22T07:37:21;21.67;;;15.57;;
49223;SDS011;35050;51.316;5.994;2023-02-22T07:39:46;18.45;;;14.00;;
49223;SDS011;35050;51.316;5.994;2023-02-22T07:42:12;18.63;;;13.98;;
49223;SDS011;35050;51.316;5.994;2023-02-22T07:44:37;18.90;;;13.73;;
49223;SDS011;35050;51.316;5.994;2023-02-22T07:47:03;16.75;;;12.43;;
49223;SDS011;35050;51.316;5.994;2023-02-22T07:49:29;18.15;;;13.57;;
49223;SDS011;35050;51.316;5.994;2023-02-22T07:51:55;15.93;;;12.07;;
49223;SDS011;35050;51.316;5.994;2023-02-22T07:54:21;15.65;;;11.55;;
49223;SDS011;35050;51.316;5.994;2023-02-22T07:56:46;15.13;;;10.88;;
49223;SDS011;35050;51.316;5.994;2023-02-22T07:59:13;13.75;;;10.27;;
49223;SDS011;35050;51.316;5.994;2023-02-22T08:01:39;14.00;;;11.38;;
49223;SDS011;35050;51.316;5.994;2023-02-22T08:04:05;14.98;;;10.80;;
49223;SDS011;35050;51.316;5.994;2023-02-22T08:06:31;14.70;;;11.13;;
49223;SDS011;35050;51.316;5.994;2023-02-22T08:08:57;14.82;;;11.32;;
49223;SDS011;35050;51.316;5.994;2023-02-22T08:11:23;19.40;;;11.93;;
49223;SDS011;35050;51.316;5.994;2023-02-22T08:13:49;12.65;;;9.80;;
49223;SDS011;35050;51.316;5.994;2023-02-22T08:16:15;12.05;;;9.20;;
49223;SDS011;35050;51.316;5.994;2023-02-22T08:18:41;13.00;;;9.18;;
49223;SDS011;35050;51.316;5.994;2023-02-22T08:21:06;11.52;;;9.35;;
49223;SDS011;35050;51.316;5.994;2023-02-22T08:23:32;12.82;;;9.63;;
49223;SDS011;35050;51.316;5.994;2023-02-22T08:26:08;13.23;;;9.60;;
49223;SDS011;35050;51.316;5.994;2023-02-22T08:28:34;14.05;;;9.52;;
49223;SDS011;35050;51.316;5.994;2023-02-22T08:31:00;12.98;;;9.23;;
49223;SDS011;35050;51.316;5.994;2023-02-22T08:33:26;12.18;;;8.82;;
49223;SDS011;35050;51.316;5.994;2023-02-22T08:35:51;12.63;;;9.25;;
49223;SDS011;35050;51.316;5.994;2023-02-22T08:38:21;14.20;;;10.13;;
49223;SDS011;35050;51.316;5.994;2023-02-22T08:43:17;12.93;;;9.93;;
49223;SDS011;35050;51.316;5.994;2023-02-22T08:45:43;11.27;;;8.40;;
49223;SDS011;35050;51.316;5.994;2023-02-22T08:48:10;12.52;;;9.35;;
49223;SDS011;35050;51.316;5.994;2023-02-22T08:50:36;11.88;;;8.95;;
49223;SDS011;35050;51.316;5.994;2023-02-22T08:53:05;12.70;;;9.88;;
49223;SDS011;35050;51.316;5.994;2023-02-22T08:55:33;13.00;;;9.70;;
49223;SDS011;35050;51.316;5.994;2023-02-22T08:58:00;12.77;;;9.52;;
49223;SDS011;35050;51.316;5.994;2023-02-22T09:00:28;11.00;;;8.93;;
49223;SDS011;35050;51.316;5.994;2023-02-22T09:02:57;12.25;;;9.13;;
49223;SDS011;35050;51.316;5.994;2023-02-22T09:05:23;11.45;;;9.10;;
49223;SDS011;35050;51.316;5.994;2023-02-22T09:07:49;12.50;;;9.73;;
49223;SDS011;35050;51.316;5.994;2023-02-22T09:10:15;11.35;;;8.63;;
49223;SDS011;35050;51.316;5.994;2023-02-22T09:12:43;10.52;;;8.57;;
49223;SDS011;35050;51.316;5.994;2023-02-22T09:15:09;10.80;;;7.97;;
49223;SDS011;35050;51.316;5.994;2023-02-22T09:17:36;10.82;;;8.27;;
49223;SDS011;35050;51.316;5.994;2023-02-22T09:20:02;12.07;;;9.25;;
49223;SDS011;35050;51.316;5.994;2023-02-22T09:22:29;13.10;;;8.75;;
49223;SDS011;35050;51.316;5.994;2023-02-22T09:24:55;9.82;;;7.75;;
49223;SDS011;35050;51.316;5.994;2023-02-22T09:27:20;10.57;;;8.25;;
49223;SDS011;35050;51.316;5.994;2023-02-22T09:29:47;11.05;;;8.40;;
49223;SDS011;35050;51.316;5.994;2023-02-22T09:32:13;11.82;;;8.55;;
49223;SDS011;35050;51.316;5.994;2023-02-22T09:34:42;11.07;;;8.90;;
49223;SDS011;35050;51.316;5.994;2023-02-22T09:37:10;9.95;;;7.88;;
49223;SDS011;35050;51.316;5.994;2023-02-22T09:39:36;10.20;;;8.43;;
49223;SDS011;35050;51.316;5.994;2023-02-22T09:42:10;10.80;;;8.45;;
49223;SDS011;35050;51.316;5.994;2023-02-22T09:48:10;13.02;;;9.95;;
49223;SDS011;35050;51.316;5.994;2023-02-22T09:50:33;10.73;;;8.63;;
49223;SDS011;35050;51.316;5.994;2023-02-22T09:55:49;10.65;;;8.27;;
49223;SDS011;35050;51.316;5.994;2023-02-22T10:01:15;11.10;;;9.10;;
49223;SDS011;35050;51.316;5.994;2023-02-22T10:07:00;11.38;;;8.77;;
49223;SDS011;35050;51.316;5.994;2023-02-22T10:09:44;10.55;;;7.90;;
49223;SDS011;35050;51.316;5.994;2023-02-22T10:12:28;10.38;;;8.05;;
49223;SDS011;35050;51.316;5.994;2023-02-22T10:15:11;11.80;;;9.05;;
49223;SDS011;35050;51.316;5.994;2023-02-22T10:23:37;10.82;;;7.95;;
49223;SDS011;35050;51.316;5.994;2023-02-22T10:26:30;9.95;;;8.18;;
49223;SDS011;35050;51.316;5.994;2023-02-22T10:31:42;10.50;;;7.78;;
49223;SDS011;35050;51.316;5.994;2023-02-22T10:34:16;11.40;;;8.25;;
49223;SDS011;35050;51.316;5.994;2023-02-22T10:36:49;10.75;;;8.65;;
49223;SDS011;35050;51.316;5.994;2023-02-22T10:39:29;11.13;;;8.18;;
49223;SDS011;35050;51.316;5.994;2023-02-22T10:41:57;9.98;;;7.63;;
49223;SDS011;35050;51.316;5.994;2023-02-22T10:44:33;9.32;;;7.47;;
49223;SDS011;35050;51.316;5.994;2023-02-22T10:47:04;10.60;;;6.93;;
49223;SDS011;35050;51.316;5.994;2023-02-22T10:49:55;7.80;;;6.25;;
49223;SDS011;35050;51.316;5.994;2023-02-22T10:52:30;8.75;;;6.65;;
49223;SDS011;35050;51.316;5.994;2023-02-22T10:55:00;8.02;;;6.10;;
49223;SDS011;35050;51.316;5.994;2023-02-22T10:57:31;10.32;;;6.43;;
49223;SDS011;35050;51.316;5.994;2023-02-22T11:00:19;7.40;;;6.43;;
49223;SDS011;35050;51.316;5.994;2023-02-22T11:02:54;8.10;;;6.15;;
49223;SDS011;35050;51.316;5.994;2023-02-22T11:05:40;9.75;;;6.95;;
49223;SDS011;35050;51.316;5.994;2023-02-22T11:10:58;7.82;;;5.72;;
49223;SDS011;35050;51.316;5.994;2023-02-22T11:13:29;7.30;;;5.47;;
49223;SDS011;35050;51.316;5.994;2023-02-22T11:16:00;8.60;;;6.13;;
49223;SDS011;35050;51.316;5.994;2023-02-22T11:18:40;8.43;;;5.85;;
49223;SDS011;35050;51.316;5.994;2023-02-22T11:21:07;7.47;;;5.75;;
49223;SDS011;35050;51.316;5.994;2023-02-22T11:23:35;7.32;;;4.93;;
49223;SDS011;35050;51.316;5.994;2023-02-22T11:26:05;8.00;;;5.95;;
49223;SDS011;35050;51.316;5.994;2023-02-22T11:28:34;9.60;;;7.10;;
49223;SDS011;35050;51.316;5.994;2023-02-22T11:31:09;8.77;;;7.25;;
49223;SDS011;35050;51.316;5.994;2023-02-22T11:33:57;8.57;;;6.20;;
49223;SDS011;35050;51.316;5.994;2023-02-22T11:36:40;7.97;;;6.05;;
49223;SDS011;35050;51.316;5.994;2023-02-22T11:41:58;6.80;;;5.47;;
49223;SDS011;35050;51.316;5.994;2023-02-22T11:47:33;7.90;;;5.07;;
49223;SDS011;35050;51.316;5.994;2023-02-22T11:50:00;7.05;;;5.45;;
49223;SDS011;35050;51.316;5.994;2023-02-22T11:58:04;7.70;;;5.30;;
49223;SDS011;35050;51.316;5.994;2023-02-22T12:03:47;7.68;;;5.60;;
49223;SDS011;35050;51.316;5.994;2023-02-22T12:09:27;7.10;;;5.65;;
49223;SDS011;35050;51.316;5.994;2023-02-22T12:20:04;9.82;;;5.90;;
49223;SDS011;35050;51.316;5.994;2023-02-22T12:26:09;6.40;;;5.03;;
49223;SDS011;35050;51.316;5.994;2023-02-22T12:29:03;9.20;;;5.72;;
49223;SDS011;35050;51.316;5.994;2023-02-22T12:31:42;8.93;;;5.72;;
49223;SDS011;35050;51.316;5.994;2023-02-22T12:42:19;7.47;;;5.05;;
49223;SDS011;35050;51.316;5.994;2023-02-22T12:44:54;6.43;;;4.82;;
49223;SDS011;35050;51.316;5.994;2023-02-22T12:47:28;8.13;;;4.55;;
49223;SDS011;35050;51.316;5.994;2023-02-22T12:50:01;5.70;;;5.10;;
49223;SDS011;35050;51.316;5.994;2023-02-22T12:55:23;6.93;;;5.97;;
49223;SDS011;35050;51.316;5.994;2023-02-22T13:00:47;6.65;;;5.43;;
49223;SDS011;35050;51.316;5.994;2023-02-22T13:03:38;6.75;;;5.00;;
49223;SDS011;35050;51.316;5.994;2023-02-22T13:17:27;6.93;;;5.47;;
49223;SDS011;35050;51.316;5.994;2023-02-22T13:20:04;6.28;;;5.40;;
49223;SDS011;35050;51.316;5.994;2023-02-22T13:25:22;5.28;;;4.60;;
49223;SDS011;35050;51.316;5.994;2023-02-22T13:28:21;7.93;;;5.53;;
49223;SDS011;35050;51.316;5.994;2023-02-22T13:36:36;6.28;;;5.47;;
49223;SDS011;35050;51.316;5.994;2023-02-22T13:52:50;8.20;;;6.22;;
49223;SDS011;35050;51.316;5.994;2023-02-22T13:55:23;7.25;;;5.90;;
49223;SDS011;35050;51.316;5.994;2023-02-22T13:57:58;8.18;;;6.60;;
49223;SDS011;35050;51.316;5.994;2023-02-22T14:13:27;9.00;;;6.50;;
49223;SDS011;35050;51.316;5.994;2023-02-22T14:21:09;7.57;;;6.20;;
49223;SDS011;35050;51.316;5.994;2023-02-22T14:23:41;8.32;;;5.95;;
49223;SDS011;35050;51.316;5.994;2023-02-22T14:29:00;8.27;;;5.53;;
49223;SDS011;35050;51.316;5.994;2023-02-22T14:31:33;9.95;;;6.20;;
49223;SDS011;35050;51.316;5.994;2023-02-22T14:34:43;8.45;;;6.03;;
49223;SDS011;35050;51.316;5.994;2023-02-22T14:37:21;6.40;;;5.00;;
49223;SDS011;35050;51.316;5.994;2023-02-22T14:39:51;5.93;;;5.22;;
49223;SDS011;35050;51.316;5.994;2023-02-22T14:47:37;5.60;;;4.10;;
49223;SDS011;35050;51.316;5.994;2023-02-22T14:52:39;5.32;;;4.63;;
49223;SDS011;35050;51.316;5.994;2023-02-22T14:55:13;12.50;;;7.70;;
49223;SDS011;35050;51.316;5.994;2023-02-22T15:00:26;9.90;;;7.88;;
49223;SDS011;35050;51.316;5.994;2023-02-22T15:03:02;12.15;;;9.30;;
49223;SDS011;35050;51.316;5.994;2023-02-22T15:05:33;11.48;;;8.75;;
49223;SDS011;35050;51.316;5.994;2023-02-22T15:08:04;8.43;;;7.45;;
49223;SDS011;35050;51.316;5.994;2023-02-22T15:10:39;9.98;;;8.40;;
49223;SDS011;35050;51.316;5.994;2023-02-22T15:13:15;10.63;;;9.15;;
49223;SDS011;35050;51.316;5.994;2023-02-22T15:15:51;9.80;;;8.00;;
49223;SDS011;35050;51.316;5.994;2023-02-22T15:18:24;10.15;;;7.65;;
49223;SDS011;35050;51.316;5.994;2023-02-22T15:20:52;10.52;;;7.82;;
49223;SDS011;35050;51.316;5.994;2023-02-22T15:23:21;11.30;;;8.52;;
49223;SDS011;35050;51.316;5.994;2023-02-22T15:25:54;10.00;;;8.25;;
49223;SDS011;35050;51.316;5.994;2023-02-22T15:28:20;10.88;;;9.02;;
49223;SDS011;35050;51.316;5.994;2023-02-22T15:30:51;11.43;;;9.25;;
49223;SDS011;35050;51.316;5.994;2023-02-22T15:33:40;10.85;;;9.75;;
49223;SDS011;35050;51.316;5.994;2023-02-22T15:36:12;15.40;;;10.65;;
49223;SDS011;35050;51.316;5.994;2023-02-22T15:38:40;12.15;;;10.57;;
49223;SDS011;35050;51.316;5.994;2023-02-22T15:41:19;13.75;;;10.95;;
49223;SDS011;35050;51.316;5.994;2023-02-22T15:44:00;12.93;;;10.90;;
49223;SDS011;35050;51.316;5.994;2023-02-22T15:46:31;11.73;;;9.80;;
49223;SDS011;35050;51.316;5.994;2023-02-22T15:49:04;14.35;;;10.82;;
49223;SDS011;35050;51.316;5.994;2023-02-22T15:51:39;13.05;;;10.68;;
49223;SDS011;35050;51.316;5.994;2023-02-22T15:54:10;14.02;;;10.95;;
49223;SDS011;35050;51.316;5.994;2023-02-22T15:56:40;13.02;;;10.43;;
49223;SDS011;35050;51.316;5.994;2023-02-22T15:59:19;13.30;;;10.07;;
49223;SDS011;35050;51.316;5.994;2023-02-22T16:01:48;10.80;;;8.77;;
49223;SDS011;35050;51.316;5.994;2023-02-22T16:04:16;10.52;;;8.48;;
49223;SDS011;35050;51.316;5.994;2023-02-22T16:06:47;10.57;;;7.88;;
49223;SDS011;35050;51.316;5.994;2023-02-22T16:09:16;9.30;;;7.88;;
49223;SDS011;35050;51.316;5.994;2023-02-22T16:12:06;8.52;;;7.30;;
49223;SDS011;35050;51.316;5.994;2023-02-22T16:17:10;10.25;;;8.65;;
49223;SDS011;35050;51.316;5.994;2023-02-22T16:19:55;10.73;;;8.30;;
49223;SDS011;35050;51.316;5.994;2023-02-22T16:22:27;8.30;;;7.38;;
49223;SDS011;35050;51.316;5.994;2023-02-22T16:25:21;10.13;;;7.78;;
49223;SDS011;35050;51.316;5.994;2023-02-22T16:27:52;11.20;;;8.48;;
49223;SDS011;35050;51.316;5.994;2023-02-22T16:30:28;9.98;;;8.50;;
49223;SDS011;35050;51.316;5.994;2023-02-22T16:32:58;10.25;;;8.25;;
49223;SDS011;35050;51.316;5.994;2023-02-22T16:35:29;11.70;;;9.65;;
49223;SDS011;35050;51.316;5.994;2023-02-22T16:38:00;9.18;;;7.65;;
49223;SDS011;35050;51.316;5.994;2023-02-22T16:40:42;9.00;;;7.13;;
49223;SDS011;35050;51.316;5.994;2023-02-22T16:43:16;7.68;;;6.35;;
49223;SDS011;35050;51.316;5.994;2023-02-22T16:45:43;8.48;;;6.65;;
49223;SDS011;35050;51.316;5.994;2023-02-22T16:48:22;9.32;;;5.97;;
49223;SDS011;35050;51.316;5.994;2023-02-22T16:50:54;7.85;;;5.88;;
49223;SDS011;35050;51.316;5.994;2023-02-22T16:53:24;8.13;;;5.80;;
49223;SDS011;35050;51.316;5.994;2023-02-22T16:55:51;6.90;;;5.90;;
49223;SDS011;35050;51.316;5.994;2023-02-22T16:58:25;8.68;;;7.20;;
49223;SDS011;35050;51.316;5.994;2023-02-22T17:00:54;8.48;;;6.78;;
49223;SDS011;35050;51.316;5.994;2023-02-22T17:03:21;8.77;;;6.40;;
49223;SDS011;35050;51.316;5.994;2023-02-22T17:05:48;6.45;;;5.40;;
49223;SDS011;35050;51.316;5.994;2023-02-22T17:08:14;7.85;;;5.88;;
49223;SDS011;35050;51.316;5.994;2023-02-22T17:10:40;7.18;;;6.10;;
49223;SDS011;35050;51.316;5.994;2023-02-22T17:13:06;7.90;;;6.10;;
49223;SDS011;35050;51.316;5.994;2023-02-22T17:15:33;6.05;;;5.45;;
49223;SDS011;35050;51.316;5.994;2023-02-22T17:18:00;7.82;;;6.05;;
49223;SDS011;35050;51.316;5.994;2023-02-22T17:20:30;6.13;;;4.97;;
49223;SDS011;35050;51.316;5.994;2023-02-22T17:22:57;9.27;;;7.25;;
49223;SDS011;35050;51.316;5.994;2023-02-22T17:25:24;12.27;;;7.15;;
49223;SDS011;35050;51.316;5.994;2023-02-22T17:27:54;8.18;;;6.25;;
49223;SDS011;35050;51.316;5.994;2023-02-22T17:30:19;7.00;;;6.13;;
49223;SDS011;35050;51.316;5.994;2023-02-22T17:32:48;7.70;;;5.75;;
49223;SDS011;35050;51.316;5.994;2023-02-22T17:35:19;6.90;;;5.57;;
49223;SDS011;35050;51.316;5.994;2023-02-22T17:37:47;9.23;;;5.70;;
49223;SDS011;35050;51.316;5.994;2023-02-22T17:40:14;7.10;;;5.80;;
49223;SDS011;35050;51.316;5.994;2023-02-22T17:42:43;6.15;;;5.38;;
49223;SDS011;35050;51.316;5.994;2023-02-22T17:45:10;7.28;;;5.68;;
49223;SDS011;35050;51.316;5.994;2023-02-22T17:47:44;9.45;;;6.03;;
49223;SDS011;35050;51.316;5.994;2023-02-22T17:50:10;7.47;;;5.85;;